Time;durP1;ratioP1;P1;durP2;ratioP2;P2;SDS_P1;SDS_P2;PMS_P1;PMS_P2;Temp;Humidity;BMP_temperature;BMP_pressure;BME280_temperature;BME280_humidity;BME280_pressure;Samples;Min_cycle;Max_cycle;Signal;HPM_P1;HPM_P2
2021/09/20 00:00:06;;;;;;;2.08;0.60;;;25.00;56.00;;;;;;5065270;28;20585;-48
2021/09/20 00:02:33;;;;;;;5.88;0.35;;;25.10;56.10;;;;;;5062599;28;20119;-49
2021/09/20 00:05:01;;;;;;;5.13;0.65;;;25.10;56.20;;;;;;5059643;28;20139;-49
2021/09/20 00:07:30;;;;;;;0.82;0.75;;;25.10;56.30;;;;;;5060092;28;20040;-48
2021/09/20 00:09:57;;;;;;;4.10;1.00;;;25.10;56.40;;;;;;5060400;28;20060;-47
2021/09/20 00:12:24;;;;;;;3.35;0.40;;;25.20;56.50;;;;;;5045549;28;20034;-48
2021/09/20 00:14:51;;;;;;;1.65;0.20;;;25.20;56.50;;;;;;5064645;28;20127;-48
2021/09/20 00:17:18;;;;;;;1.70;1.00;;;25.20;56.60;;;;;;5050782;28;20467;-50
2021/09/20 00:19:45;;;;;;;3.22;0.47;;;25.20;56.70;;;;;;5052418;28;20579;-46
2021/09/20 00:22:13;;;;;;;1.05;0.17;;;25.20;56.70;;;;;;5049451;28;20200;-47
2021/09/20 00:24:40;;;;;;;2.55;0.30;;;25.30;56.90;;;;;;5063078;28;20156;-47
2021/09/20 00:27:12;;;;;;;2.90;0.20;;;25.30;56.90;;;;;;5065400;28;20049;-48
2021/09/20 00:29:39;;;;;;;3.00;0.28;;;25.30;57.00;;;;;;5051422;28;20053;-47
2021/09/20 00:32:07;;;;;;;1.00;0.10;;;25.30;57.00;;;;;;5057146;28;20055;-50
2021/09/20 00:34:34;;;;;;;0.65;0.30;;;25.30;57.10;;;;;;5059607;28;20136;-50
2021/09/20 00:37:01;;;;;;;1.15;0.20;;;25.30;57.10;;;;;;5060688;28;20116;-48
2021/09/20 00:39:29;;;;;;;0.65;0.17;;;25.40;57.20;;;;;;5064577;28;20101;-51
2021/09/20 00:41:56;;;;;;;1.30;0.75;;;25.40;57.20;;;;;;5065030;28;20127;-49
2021/09/20 00:44:23;;;;;;;4.47;0.57;;;25.40;57.20;;;;;;5053437;28;20056;-48
2021/09/20 00:46:50;;;;;;;0.93;0.20;;;25.40;57.30;;;;;;5053840;28;20124;-53
2021/09/20 00:49:18;;;;;;;0.40;0.30;;;25.40;57.30;;;;;;5059457;28;20622;-46
2021/09/20 00:51:45;;;;;;;0.68;0.38;;;25.40;57.30;;;;;;5063175;28;20072;-48
2021/09/20 00:54:12;;;;;;;1.00;0.10;;;25.50;57.50;;;;;;5064733;28;20143;-48
2021/09/20 00:56:41;;;;;;;0.32;0.25;;;25.50;57.50;;;;;;5057209;28;20041;-47
2021/09/20 00:59:08;;;;;;;0.82;0.13;;;25.50;57.50;;;;;;5048242;28;20523;-46
2021/09/20 01:01:36;;;;;;;1.63;0.20;;;25.50;57.50;;;;;;5051675;28;20564;-47
2021/09/20 01:04:03;;;;;;;1.58;0.10;;;25.50;57.60;;;;;;5060032;28;20051;-47
2021/09/20 01:06:30;;;;;;;1.10;0.25;;;25.50;57.50;;;;;;5064124;28;20033;-50
2021/09/20 01:08:57;;;;;;;2.25;0.10;;;25.60;57.60;;;;;;5053641;28;20045;-46
2021/09/20 01:11:25;;;;;;;1.00;0.13;;;25.60;57.60;;;;;;5058448;28;20040;-49
2021/09/20 01:13:54;;;;;;;0.20;0.10;;;25.60;58.20;;;;;;5056459;28;20580;-47
2021/09/20 01:16:21;;;;;;;0.15;0.10;;;25.50;57.50;;;;;;5049367;28;20156;-47
2021/09/20 01:18:48;;;;;;;0.30;0.10;;;25.60;58.20;;;;;;5063404;28;20098;-47
2021/09/20 01:21:16;;;;;;;1.08;0.68;;;25.60;57.60;;;;;;5050401;28;20758;-46
2021/09/20 01:23:45;;;;;;;2.20;0.10;;;25.60;57.60;;;;;;5061546;28;20563;-47
2021/09/20 01:26:14;;;;;;;0.10;0.10;;;25.60;57.60;;;;;;5059012;28;20745;-46
2021/09/20 01:28:41;;;;;;;1.38;0.10;;;25.60;57.60;;;;;;5051882;28;20048;-49
2021/09/20 01:31:08;;;;;;;0.40;0.10;;;25.60;57.60;;;;;;5058787;28;20059;-46
2021/09/20 01:33:35;;;;;;;2.35;0.20;;;25.70;57.70;;;;;;5045373;28;20045;-47
2021/09/20 01:36:04;;;;;;;3.13;0.40;;;25.60;57.60;;;;;;5059956;28;20064;-47
2021/09/20 01:38:31;;;;;;;2.17;0.20;;;25.70;57.60;;;;;;5059058;28;20182;-46
2021/09/20 01:41:00;;;;;;;5.07;0.17;;;25.60;57.50;;;;;;5055767;28;20098;-47
2021/09/20 01:43:27;;;;;;;1.23;0.10;;;25.70;57.60;;;;;;5042966;28;20449;-49
2021/09/20 01:45:54;;;;;;;0.95;0.10;;;25.70;57.60;;;;;;5058975;28;20033;-50
2021/09/20 01:48:21;;;;;;;2.63;0.10;;;25.70;57.60;;;;;;5048249;28;20049;-46
2021/09/20 01:50:48;;;;;;;0.25;0.10;;;25.70;57.50;;;;;;5049851;28;20037;-47
2021/09/20 01:53:16;;;;;;;3.22;0.40;;;25.70;57.50;;;;;;5056233;28;20044;-49
2021/09/20 01:55:43;;;;;;;0.10;0.10;;;25.70;57.50;;;;;;5057169;28;20462;-48
2021/09/20 01:58:12;;;;;;;0.57;0.10;;;25.70;57.50;;;;;;5044691;28;20733;-48
2021/09/20 02:00:43;;;;;;;0.65;0.65;;;25.70;57.40;;;;;;5062262;28;20049;-47
2021/09/20 02:03:11;;;;;;;2.55;0.10;;;25.70;57.50;;;;;;5049965;28;20056;-49
2021/09/20 02:05:39;;;;;;;0.65;0.10;;;25.70;57.40;;;;;;5047759;28;20409;-49
2021/09/20 02:08:06;;;;;;;1.17;1.00;;;25.70;57.40;;;;;;5053271;28;20048;-47
2021/09/20 02:10:33;;;;;;;1.13;0.10;;;25.70;57.30;;;;;;5058118;28;20040;-50
2021/09/20 02:13:00;;;;;;;1.10;0.10;;;25.70;57.30;;;;;;5049143;28;20047;-48
2021/09/20 02:15:29;;;;;;;0.20;0.10;;;25.80;57.30;;;;;;5062774;28;20413;-47
2021/09/20 02:17:56;;;;;;;0.88;0.20;;;25.80;57.30;;;;;;5063043;28;20428;-47
2021/09/20 02:20:23;;;;;;;0.85;0.25;;;25.80;57.20;;;;;;5047289;28;20107;-49
2021/09/20 02:22:50;;;;;;;1.10;0.10;;;25.80;57.20;;;;;;5052273;28;20473;-47
2021/09/20 02:25:18;;;;;;;1.15;0.10;;;25.80;57.20;;;;;;5057889;28;20035;-49
2021/09/20 02:27:45;;;;;;;0.40;0.10;;;25.80;57.10;;;;;;5055375;28;20497;-47
2021/09/20 02:30:12;;;;;;;0.30;0.10;;;25.80;57.10;;;;;;5062834;28;20047;-50
2021/09/20 02:32:41;;;;;;;0.10;0.00;;;25.80;57.10;;;;;;5060608;28;20135;-49
2021/09/20 02:35:10;;;;;;;1.42;0.10;;;25.80;57.10;;;;;;5049677;28;20055;-48
2021/09/20 02:37:37;;;;;;;0.65;0.10;;;25.80;57.00;;;;;;5050170;28;20036;-49
2021/09/20 02:40:06;;;;;;;0.10;0.10;;;25.80;57.00;;;;;;5058548;28;20037;-51
2021/09/20 02:42:34;;;;;;;5.53;0.10;;;25.80;57.00;;;;;;5039186;28;20124;-48
2021/09/20 02:45:01;;;;;;;0.40;0.10;;;25.80;56.90;;;;;;5063115;28;20134;-50
2021/09/20 02:47:28;;;;;;;0.32;0.10;;;25.80;56.90;;;;;;5050418;28;20068;-48
2021/09/20 02:49:57;;;;;;;0.75;0.10;;;25.80;56.80;;;;;;5050768;28;20447;-49
2021/09/20 02:52:24;;;;;;;0.30;0.10;;;25.80;56.70;;;;;;5048029;28;20079;-47
2021/09/20 02:54:51;;;;;;;0.15;0.15;;;25.80;56.70;;;;;;5060025;28;20037;-49
2021/09/20 02:57:18;;;;;;;2.20;0.10;;;25.90;56.70;;;;;;5062037;28;20476;-49
2021/09/20 02:59:45;;;;;;;1.75;0.10;;;25.90;56.70;;;;;;5059442;28;20052;-49
2021/09/20 03:02:12;;;;;;;0.10;0.05;;;25.80;56.60;;;;;;5058161;28;20152;-48
2021/09/20 03:04:39;;;;;;;0.75;0.00;;;25.80;56.60;;;;;;5057539;28;20057;-51
2021/09/20 03:07:08;;;;;;;0.50;0.10;;;25.80;56.50;;;;;;5056319;28;20589;-49
2021/09/20 03:09:35;;;;;;;2.30;0.47;;;25.80;56.40;;;;;;5030065;28;20417;-52
2021/09/20 03:12:02;;;;;;;0.73;0.00;;;25.80;56.40;;;;;;5058640;28;20059;-54
2021/09/20 03:14:30;;;;;;;0.25;0.25;;;25.80;56.40;;;;;;5057388;28;20463;-50
2021/09/20 03:16:57;;;;;;;1.88;0.10;;;25.80;56.30;;;;;;5056299;28;20119;-51
2021/09/20 03:19:24;;;;;;;0.73;0.10;;;25.80;56.30;;;;;;5057350;28;20087;-50
2021/09/20 03:21:51;;;;;;;0.10;0.10;;;25.80;56.30;;;;;;5059524;28;20041;-46
2021/09/20 03:24:19;;;;;;;0.17;0.00;;;25.80;56.30;;;;;;5062680;28;20451;-49
2021/09/20 03:26:46;;;;;;;0.10;0.10;;;25.80;56.20;;;;;;5051069;28;20574;-49
2021/09/20 03:29:13;;;;;;;1.70;0.05;;;25.80;56.20;;;;;;5053190;28;20601;-47
2021/09/20 03:31:41;;;;;;;2.03;0.03;;;25.80;56.20;;;;;;5056832;28;20582;-50
2021/09/20 03:34:08;;;;;;;1.08;0.00;;;25.80;56.20;;;;;;5056585;28;20053;-52
2021/09/20 03:36:35;;;;;;;1.73;0.25;;;25.80;56.20;;;;;;5030155;28;20118;-49
2021/09/20 03:39:03;;;;;;;0.30;0.00;;;25.80;56.10;;;;;;5061919;28;20500;-49
2021/09/20 03:41:31;;;;;;;0.47;0.03;;;25.80;56.10;;;;;;5055933;28;20065;-51
2021/09/20 03:43:58;;;;;;;7.68;0.00;;;25.80;56.10;;;;;;5048366;28;20051;-53
2021/09/20 03:46:26;;;;;;;1.27;0.15;;;25.80;56.10;;;;;;5059700;28;20091;-48
2021/09/20 03:48:53;;;;;;;4.40;0.10;;;25.70;56.00;;;;;;5048754;28;20037;-51
2021/09/20 03:51:21;;;;;;;2.45;0.10;;;25.80;56.00;;;;;;5046972;28;20048;-47
2021/09/20 03:53:48;;;;;;;0.82;0.10;;;25.80;56.00;;;;;;5056517;28;20045;-51
2021/09/20 03:56:15;;;;;;;0.50;0.10;;;25.80;55.90;;;;;;5047459;28;20136;-49
2021/09/20 03:58:43;;;;;;;0.40;0.00;;;25.80;55.90;;;;;;5049958;28;20432;-51
2021/09/20 04:01:10;;;;;;;0.77;0.00;;;25.80;55.90;;;;;;5060202;28;20518;-47
2021/09/20 04:03:38;;;;;;;1.65;0.00;;;25.70;55.80;;;;;;5047854;28;20533;-50
2021/09/20 04:06:05;;;;;;;0.35;0.00;;;25.80;55.80;;;;;;5066604;28;20041;-48
2021/09/20 04:08:32;;;;;;;0.10;0.10;;;25.80;55.80;;;;;;5060665;28;20382;-49
2021/09/20 04:11:00;;;;;;;0.13;0.00;;;25.70;55.70;;;;;;5058917;28;20389;-48
2021/09/20 04:13:27;;;;;;;0.38;0.03;;;25.70;55.80;;;;;;5059286;28;20045;-50
2021/09/20 04:15:55;;;;;;;2.72;0.10;;;25.70;55.80;;;;;;5049495;28;20513;-48
2021/09/20 04:18:23;;;;;;;0.40;0.10;;;25.70;55.80;;;;;;5052565;28;20409;-47
2021/09/20 04:20:51;;;;;;;0.10;0.00;;;25.70;55.80;;;;;;5053134;28;20041;-48
2021/09/20 04:23:20;;;;;;;0.03;0.00;;;25.70;55.80;;;;;;5058233;28;20039;-48
2021/09/20 04:25:47;;;;;;;0.65;0.25;;;25.70;56.40;;;;;;5058798;28;20056;-52
2021/09/20 04:28:15;;;;;;;0.05;0.05;;;25.70;55.80;;;;;;5054641;28;20571;-49
2021/09/20 04:30:44;;;;;;;0.15;0.00;;;25.70;55.80;;;;;;5063132;28;20037;-53
2021/09/20 04:33:13;;;;;;;0.10;0.00;;;25.70;55.70;;;;;;5049249;28;20045;-51
2021/09/20 04:35:40;;;;;;;0.28;0.00;;;25.70;55.70;;;;;;5061815;28;20136;-51
2021/09/20 04:38:08;;;;;;;1.30;0.10;;;25.70;55.70;;;;;;5052208;28;20043;-48
2021/09/20 04:40:36;;;;;;;0.32;0.00;;;25.70;55.70;;;;;;5051940;28;20067;-50
2021/09/20 04:43:04;;;;;;;0.10;0.00;;;25.70;55.70;;;;;;5060288;28;20037;-53
2021/09/20 04:45:31;;;;;;;0.20;0.00;;;25.70;55.70;;;;;;5056354;28;20124;-49
2021/09/20 04:47:58;;;;;;;0.00;0.00;;;25.70;55.70;;;;;;5049786;28;20047;-47
2021/09/20 04:50:26;;;;;;;0.45;0.00;;;25.70;55.70;;;;;;5055749;28;20474;-49
2021/09/20 04:52:54;;;;;;;0.03;0.00;;;25.70;55.70;;;;;;5044706;28;20041;-52
2021/09/20 04:55:21;;;;;;;1.10;0.00;;;25.70;55.70;;;;;;5048998;28;20064;-48
2021/09/20 04:57:49;;;;;;;1.98;0.10;;;25.70;55.70;;;;;;5049233;28;20044;-49
2021/09/20 05:00:16;;;;;;;0.77;0.15;;;25.70;55.70;;;;;;5048058;28;20119;-47
2021/09/20 05:02:43;;;;;;;2.20;0.03;;;25.70;55.60;;;;;;5049069;28;20125;-48
2021/09/20 05:05:12;;;;;;;0.08;0.00;;;25.70;55.60;;;;;;5046997;28;20045;-51
2021/09/20 05:07:40;;;;;;;0.85;0.00;;;25.70;55.70;;;;;;5051028;28;20045;-52
2021/09/20 05:10:09;;;;;;;2.95;0.00;;;25.60;56.20;;;;;;5047575;28;20061;-49
2021/09/20 05:12:36;;;;;;;0.20;0.10;;;25.60;55.60;;;;;;5043843;28;20111;-49
2021/09/20 05:15:03;;;;;;;0.00;0.00;;;25.60;55.60;;;;;;5051873;28;20444;-50
2021/09/20 05:17:30;;;;;;;1.30;0.57;;;25.60;55.60;;;;;;5043609;28;20036;-49
2021/09/20 05:19:57;;;;;;;0.30;0.08;;;25.60;55.80;;;;;;5049797;28;20068;-49
2021/09/20 05:22:24;;;;;;;4.13;0.00;;;25.60;56.00;;;;;;5050257;28;20234;-51
2021/09/20 05:24:52;;;;;;;2.90;0.20;;;25.60;56.10;;;;;;5049188;28;20049;-53
2021/09/20 05:27:20;;;;;;;0.50;0.10;;;25.70;56.30;;;;;;5048269;28;20127;-49
2021/09/20 05:29:47;;;;;;;1.75;0.10;;;25.60;56.30;;;;;;5051958;28;20095;-52
2021/09/20 05:32:14;;;;;;;1.25;0.10;;;25.60;56.30;;;;;;5050884;28;20113;-48
2021/09/20 05:34:41;;;;;;;0.20;0.20;;;25.60;57.00;;;;;;5050572;28;20056;-48
2021/09/20 05:37:08;;;;;;;1.85;0.20;;;25.60;56.40;;;;;;5045075;28;20045;-51
2021/09/20 05:39:35;;;;;;;3.88;0.10;;;25.60;56.40;;;;;;5041434;28;20462;-50
2021/09/20 05:42:03;;;;;;;0.90;0.10;;;25.60;56.50;;;;;;5044252;28;20047;-49
2021/09/20 05:44:30;;;;;;;0.20;0.00;;;25.60;56.50;;;;;;5048515;28;20809;-49
2021/09/20 05:46:57;;;;;;;0.40;0.10;;;25.60;56.50;;;;;;5047720;28;20501;-53
2021/09/20 05:49:25;;;;;;;2.15;0.17;;;25.60;56.50;;;;;;5045589;28;20086;-48
2021/09/20 05:51:52;;;;;;;1.75;0.22;;;25.60;56.50;;;;;;5044285;28;20452;-49
2021/09/20 05:54:19;;;;;;;1.58;0.10;;;25.60;56.50;;;;;;5049586;28;20041;-52
2021/09/20 05:56:46;;;;;;;0.50;0.10;;;25.60;56.60;;;;;;5048499;28;20315;-50
2021/09/20 05:59:14;;;;;;;2.25;0.10;;;25.60;56.60;;;;;;5047866;28;20068;-48
2021/09/20 06:01:41;;;;;;;0.73;0.05;;;25.50;56.50;;;;;;5047241;28;20036;-50
2021/09/20 06:04:09;;;;;;;2.60;0.57;;;25.50;56.50;;;;;;5047388;28;20041;-47
2021/09/20 06:06:36;;;;;;;4.78;0.05;;;25.50;56.50;;;;;;5043618;28;20513;-49
2021/09/20 06:09:03;;;;;;;0.10;0.05;;;25.50;56.50;;;;;;5044518;28;20032;-47
2021/09/20 06:11:30;;;;;;;1.88;0.00;;;25.50;56.50;;;;;;5046349;28;20029;-48
2021/09/20 06:13:58;;;;;;;0.10;0.00;;;25.50;56.50;;;;;;5046752;28;20098;-47
2021/09/20 06:16:26;;;;;;;0.45;0.10;;;25.50;56.60;;;;;;5046305;28;20041;-47
2021/09/20 06:18:53;;;;;;;0.00;0.00;;;25.50;56.60;;;;;;5046300;28;20033;-48
2021/09/20 06:21:21;;;;;;;0.10;0.05;;;25.50;56.60;;;;;;5044688;28;20037;-47
2021/09/20 06:23:48;;;;;;;9.60;0.63;;;25.50;56.70;;;;;;5046076;28;20120;-46
2021/09/20 06:26:15;;;;;;;2.72;0.10;;;25.50;56.70;;;;;;5046371;28;20036;-45
2021/09/20 06:28:43;;;;;;;2.13;0.90;;;25.50;56.70;;;;;;5045786;28;20057;-47
2021/09/20 06:31:10;;;;;;;1.35;0.40;;;25.50;56.70;;;;;;5045696;28;20029;-47
2021/09/20 06:33:38;;;;;;;2.03;0.20;;;25.50;56.60;;;;;;5045157;28;20163;-47
2021/09/20 06:36:06;;;;;;;1.30;0.28;;;25.50;56.60;;;;;;5046256;28;20040;-46
2021/09/20 06:38:33;;;;;;;1.48;0.10;;;25.50;56.60;;;;;;5046004;28;20033;-48
2021/09/20 06:41:00;;;;;;;1.45;0.25;;;25.50;56.50;;;;;;5045957;28;20120;-46
2021/09/20 06:43:27;;;;;;;0.30;0.20;;;25.50;56.40;;;;;;5041030;28;20156;-48
2021/09/20 06:45:56;;;;;;;1.08;0.10;;;25.50;56.40;;;;;;5048394;28;20472;-46
2021/09/20 06:48:23;;;;;;;4.95;0.20;;;25.50;56.40;;;;;;5047321;28;20124;-60
2021/09/20 06:50:51;;;;;;;3.17;0.50;;;25.50;56.60;;;;;;5064091;28;20094;-51
2021/09/20 06:53:18;;;;;;;2.95;0.52;;;25.50;56.80;;;;;;5044176;28;20041;-60
2021/09/20 06:55:45;;;;;;;2.67;0.20;;;25.50;57.00;;;;;;5043670;28;20033;-49
2021/09/20 06:58:12;;;;;;;4.10;0.68;;;25.60;57.20;;;;;;5046556;28;20041;-47
2021/09/20 07:00:41;;;;;;;5.70;2.53;;;25.60;57.20;;;;;;5055527;28;20038;-49
2021/09/20 07:03:08;;;;;;;15.38;3.70;;;25.60;57.20;;;;;;5049020;28;20045;-51
2021/09/20 07:05:35;;;;;;;13.55;3.38;;;25.60;57.80;;;;;;5059054;28;20509;-52
2021/09/20 07:08:04;;;;;;;24.23;7.07;;;25.60;58.40;;;;;;5050960;28;20037;-49
2021/09/20 07:10:32;;;;;;;23.95;5.25;;;25.60;59.30;;;;;;5046905;28;20361;-48
2021/09/20 07:12:59;;;;;;;37.53;7.55;;;25.60;59.80;;;;;;5045827;28;20056;-47
2021/09/20 07:15:26;;;;;;;20.40;5.50;;;25.60;60.00;;;;;;5045477;28;20045;-49
2021/09/20 07:17:53;;;;;;;25.13;5.63;;;25.60;59.90;;;;;;5045533;28;20509;-49
2021/09/20 07:20:21;;;;;;;17.48;4.32;;;25.70;59.90;;;;;;5044014;28;20520;-48
2021/09/20 07:22:48;;;;;;;13.48;4.15;;;25.60;59.70;;;;;;5045564;28;20056;-51
2021/09/20 07:25:16;;;;;;;13.00;3.80;;;25.60;59.70;;;;;;5045362;28;20043;-48
2021/09/20 07:27:44;;;;;;;14.63;3.47;;;25.60;59.60;;;;;;5041430;28;20041;-49
2021/09/20 07:30:16;;;;;;;12.65;4.55;;;25.70;59.60;;;;;;5048356;28;20425;-50
2021/09/20 07:32:44;;;;;;;13.65;2.95;;;25.70;59.50;;;;;;5044308;28;20414;-48
2021/09/20 07:35:12;;;;;;;10.35;3.38;;;25.70;59.40;;;;;;5048798;28;20049;-49
2021/09/20 07:37:40;;;;;;;14.60;3.33;;;25.70;59.20;;;;;;5051768;28;20057;-47
2021/09/20 07:40:08;;;;;;;12.18;4.15;;;25.70;59.40;;;;;;5049746;28;20029;-47
2021/09/20 07:42:37;;;;;;;11.55;3.90;;;25.70;60.40;;;;;;5032029;28;20120;-51
2021/09/20 07:45:08;;;;;;;19.27;4.05;;;25.70;60.60;;;;;;5063272;28;20048;-50
2021/09/20 07:47:35;;;;;;;12.45;3.63;;;25.70;60.60;;;;;;5061547;28;20064;-48
2021/09/20 07:50:02;;;;;;;10.82;2.63;;;25.70;60.60;;;;;;5057928;28;20067;-47
2021/09/20 07:52:29;;;;;;;8.60;3.47;;;25.70;60.70;;;;;;5053615;28;20060;-49
2021/09/20 07:54:57;;;;;;;10.45;2.17;;;25.70;60.70;;;;;;5052011;28;20106;-48
2021/09/20 07:57:24;;;;;;;10.20;2.42;;;25.70;60.70;;;;;;5050427;28;20622;-50
2021/09/20 07:59:53;;;;;;;12.48;4.15;;;25.80;60.80;;;;;;5055012;28;20052;-48
2021/09/20 08:02:20;;;;;;;8.02;2.63;;;25.70;60.60;;;;;;5052221;28;20072;-49
2021/09/20 08:04:47;;;;;;;5.13;2.05;;;25.80;61.20;;;;;;5053316;28;20151;-46
2021/09/20 08:07:14;;;;;;;6.68;2.60;;;25.80;61.10;;;;;;5050047;28;20072;-48
2021/09/20 08:09:42;;;;;;;5.70;1.30;;;25.80;60.50;;;;;;5065037;28;20041;-49
2021/09/20 08:12:09;;;;;;;10.68;2.90;;;25.80;60.40;;;;;;5053062;28;20064;-48
2021/09/20 08:14:37;;;;;;;8.02;2.95;;;25.80;60.30;;;;;;5062142;28;20047;-50
2021/09/20 08:17:05;;;;;;;12.65;2.88;;;25.80;60.20;;;;;;5059820;28;20052;-51
2021/09/20 08:19:32;;;;;;;4.13;2.35;;;25.80;60.10;;;;;;5061451;28;20064;-48
2021/09/20 08:21:59;;;;;;;8.38;3.38;;;25.80;60.00;;;;;;5048927;28;20475;-50
2021/09/20 08:24:27;;;;;;;6.57;3.38;;;25.90;59.90;;;;;;5065152;28;20041;-50
2021/09/20 08:26:54;;;;;;;8.85;3.20;;;25.90;59.80;;;;;;5061748;28;20052;-48
2021/09/20 08:29:22;;;;;;;6.82;2.80;;;25.90;59.70;;;;;;5049179;28;20052;-50
2021/09/20 08:31:49;;;;;;;6.65;3.10;;;25.90;59.60;;;;;;5052374;28;20048;-49
2021/09/20 08:34:17;;;;;;;8.38;2.30;;;25.90;59.50;;;;;;5052856;28;20508;-47
2021/09/20 08:36:44;;;;;;;3.38;1.67;;;25.90;59.30;;;;;;5048633;28;20037;-47
2021/09/20 08:39:11;;;;;;;3.92;1.75;;;25.90;59.20;;;;;;5065224;28;20040;-48
2021/09/20 08:41:41;;;;;;;3.20;1.20;;;25.90;59.10;;;;;;5050938;28;20045;-48
2021/09/20 08:44:09;;;;;;;3.85;1.77;;;26.00;59.00;;;;;;5053393;28;20048;-47
2021/09/20 08:46:39;;;;;;;5.15;2.17;;;25.90;58.80;;;;;;5059294;28;20168;-49
2021/09/20 08:49:07;;;;;;;3.33;1.00;;;26.00;58.80;;;;;;5046972;28;20786;-47
2021/09/20 08:51:35;;;;;;;2.47;1.30;;;26.00;58.80;;;;;;5064434;28;20152;-48
2021/09/20 08:54:03;;;;;;;6.15;1.60;;;26.00;58.70;;;;;;5045950;28;20111;-50
2021/09/20 08:56:30;;;;;;;5.03;2.20;;;26.00;58.60;;;;;;5052486;28;20440;-51
2021/09/20 08:58:57;;;;;;;4.05;1.30;;;26.00;58.50;;;;;;5050138;28;20083;-51
2021/09/20 09:01:25;;;;;;;2.97;0.82;;;26.00;58.40;;;;;;5050351;28;20658;-50
2021/09/20 09:03:52;;;;;;;2.45;0.93;;;26.00;58.30;;;;;;5051213;28;20037;-50
2021/09/20 09:06:29;;;;;;;1.00;0.90;;;26.00;58.30;;;;;;5050318;28;20052;-53
2021/09/20 09:08:58;;;;;;;2.42;0.88;;;26.00;58.20;;;;;;5064280;28;20123;-50
2021/09/20 09:11:29;;;;;;;2.95;0.88;;;26.00;58.10;;;;;;5049207;28;20095;-52
2021/09/20 09:14:00;;;;;;;3.80;0.80;;;26.00;58.00;;;;;;5054250;28;20048;-48
2021/09/20 09:16:28;;;;;;;2.65;0.90;;;26.00;58.00;;;;;;5051299;28;20033;-48
2021/09/20 09:19:02;;;;;;;1.17;0.77;;;26.00;57.90;;;;;;5048953;28;20477;-48
2021/09/20 09:21:31;;;;;;;2.53;1.20;;;26.00;57.90;;;;;;5063718;28;20043;-52
2021/09/20 09:24:05;;;;;;;1.67;0.95;;;26.00;57.90;;;;;;5049832;28;20051;-49
2021/09/20 09:26:32;;;;;;;3.95;1.13;;;26.00;57.80;;;;;;5059269;28;20145;-50
2021/09/20 09:29:10;;;;;;;1.75;0.50;;;26.00;57.70;;;;;;5052494;28;20061;-48
2021/09/20 09:31:38;;;;;;;2.85;0.88;;;26.00;57.70;;;;;;5051412;28;20082;-48
2021/09/20 09:34:17;;;;;;;1.52;0.75;;;26.00;57.70;;;;;;5039209;28;20049;-51
2021/09/20 09:36:44;;;;;;;2.20;0.75;;;26.00;57.60;;;;;;5030593;28;20132;-47
2021/09/20 09:39:13;;;;;;;1.08;0.38;;;26.00;57.50;;;;;;5060907;28;20045;-50
2021/09/20 09:41:42;;;;;;;0.88;0.52;;;26.00;57.50;;;;;;5060916;28;20128;-49
2021/09/20 09:44:12;;;;;;;2.95;0.63;;;26.00;57.40;;;;;;5057839;28;20127;-48
2021/09/20 09:46:41;;;;;;;0.55;0.55;;;26.00;57.30;;;;;;5052118;28;20137;-51
2021/09/20 09:49:14;;;;;;;1.55;0.30;;;26.00;57.20;;;;;;5035825;28;20098;-49
2021/09/20 09:51:57;;;;;;;2.75;0.43;;;26.00;57.20;;;;;;5038848;28;20486;-51
2021/09/20 09:54:37;;;;;;;2.65;0.65;;;26.00;57.00;;;;;;5062502;28;20048;-50
2021/09/20 09:57:16;;;;;;;1.98;0.40;;;26.00;57.00;;;;;;5059102;28;20041;-51
2021/09/20 09:59:53;;;;;;;1.13;0.35;;;26.10;57.00;;;;;;5052371;28;20067;-55
2021/09/20 10:02:25;;;;;;;0.63;0.22;;;26.00;56.90;;;;;;5056982;28;20045;-51
2021/09/20 10:04:55;;;;;;;0.73;0.70;;;26.00;56.90;;;;;;5058001;28;20044;-49
2021/09/20 10:07:24;;;;;;;0.88;0.40;;;26.00;56.80;;;;;;5058416;28;20048;-50
2021/09/20 10:09:53;;;;;;;1.95;0.73;;;26.00;56.80;;;;;;5060921;28;20508;-49
2021/09/20 10:12:23;;;;;;;1.35;0.50;;;26.00;56.80;;;;;;5062408;28;20045;-50
2021/09/20 10:14:51;;;;;;;0.75;0.65;;;26.00;56.80;;;;;;5051437;28;20047;-48
2021/09/20 10:17:19;;;;;;;1.95;0.40;;;26.00;56.70;;;;;;5056598;28;20410;-51
2021/09/20 10:19:47;;;;;;;1.75;0.30;;;26.00;56.60;;;;;;5058158;28;20040;-50
2021/09/20 10:22:17;;;;;;;4.10;0.50;;;26.00;56.60;;;;;;5057845;28;20769;-51
2021/09/20 10:24:44;;;;;;;1.25;0.22;;;26.00;56.60;;;;;;5061721;28;20068;-50
2021/09/20 10:27:14;;;;;;;3.13;0.30;;;26.00;57.10;;;;;;5062757;28;20041;-50
2021/09/20 10:29:46;;;;;;;1.67;0.40;;;26.00;56.50;;;;;;5060505;28;20041;-51
2021/09/20 10:32:14;;;;;;;1.65;0.50;;;26.00;56.50;;;;;;5057631;28;20504;-49
2021/09/20 10:34:41;;;;;;;0.40;0.20;;;26.00;56.50;;;;;;5057770;28;20098;-52
2021/09/20 10:37:11;;;;;;;1.33;0.60;;;26.00;56.40;;;;;;5057570;28;20041;-50
2021/09/20 10:39:47;;;;;;;0.60;0.25;;;26.00;56.40;;;;;;5031142;28;20029;-54
2021/09/20 10:42:47;;;;;;;1.10;0.52;;;26.00;56.30;;;;;;5048769;28;20083;-49
2021/09/20 10:45:49;;;;;;;3.20;0.70;;;26.00;56.30;;;;;;5060116;28;20036;-49
2021/09/20 10:48:36;;;;;;;3.17;0.40;;;26.00;56.40;;;;;;5045421;28;20044;-52
2021/09/20 10:51:16;;;;;;;0.63;0.30;;;25.90;56.30;;;;;;5052868;28;20040;-50
2021/09/20 10:53:43;;;;;;;0.35;0.28;;;25.90;56.20;;;;;;5059804;28;20076;-53
2021/09/20 10:56:19;;;;;;;2.15;0.88;;;25.90;56.20;;;;;;5053510;28;20069;-48
2021/09/20 10:59:12;;;;;;;0.50;0.17;;;26.00;56.30;;;;;;5051229;28;20072;-52
2021/09/20 11:01:41;;;;;;;0.77;0.77;;;26.00;56.20;;;;;;5057070;28;20051;-50
2021/09/20 11:04:15;;;;;;;1.10;0.20;;;26.00;56.20;;;;;;5053835;28;20044;-49
2021/09/20 11:06:43;;;;;;;1.00;0.20;;;26.00;56.10;;;;;;5030864;28;20077;-50
2021/09/20 11:09:46;;;;;;;0.75;0.20;;;26.00;56.10;;;;;;5066629;28;20098;-49
2021/09/20 11:12:18;;;;;;;0.57;0.38;;;26.00;56.50;;;;;;5021860;28;20131;-50
2021/09/20 11:15:02;;;;;;;1.95;0.30;;;26.00;56.00;;;;;;5022046;28;20275;-48
2021/09/20 11:17:42;;;;;;;0.73;0.20;;;26.00;55.90;;;;;;5011109;28;20577;-52
2021/09/20 11:20:36;;;;;;;1.20;0.20;;;26.00;55.90;;;;;;5015771;28;20565;-52
2021/09/20 11:23:35;;;;;;;1.95;0.47;;;26.00;55.80;;;;;;4997600;28;20042;-50
2021/09/20 11:26:08;;;;;;;3.30;0.20;;;26.10;55.80;;;;;;4957099;28;20067;-49
2021/09/20 11:28:38;;;;;;;1.42;0.15;;;26.00;55.80;;;;;;4953401;28;20632;-53
2021/09/20 11:31:05;;;;;;;1.23;0.20;;;26.00;55.70;;;;;;4949767;28;20130;-49
2021/09/20 11:33:42;;;;;;;0.38;0.20;;;26.10;55.70;;;;;;4955507;28;20122;-50
2021/09/20 11:36:37;;;;;;;0.30;0.20;;;26.10;55.60;;;;;;4962014;28;20423;-50
2021/09/20 11:39:14;;;;;;;0.20;0.20;;;26.10;55.60;;;;;;4938712;28;20207;-51
2021/09/20 11:41:44;;;;;;;1.55;0.50;;;26.10;55.60;;;;;;4961388;28;20051;-48
2021/09/20 11:44:13;;;;;;;1.60;0.35;;;26.10;55.60;;;;;;4993773;28;20045;-48
2021/09/20 11:46:40;;;;;;;0.38;0.38;;;26.10;55.50;;;;;;4995020;28;20510;-51
2021/09/20 11:49:12;;;;;;;0.60;0.40;;;26.10;55.40;;;;;;4987424;28;20047;-52
2021/09/20 11:51:40;;;;;;;1.45;0.40;;;26.20;55.40;;;;;;4972013;28;20057;-52
2021/09/20 11:54:08;;;;;;;0.98;0.35;;;26.10;55.30;;;;;;4988294;28;20061;-48
2021/09/20 11:56:35;;;;;;;2.53;0.50;;;26.20;55.40;;;;;;4999091;28;20088;-48
2021/09/20 11:59:02;;;;;;;1.75;0.25;;;26.10;55.20;;;;;;4997742;28;20038;-48
2021/09/20 12:01:30;;;;;;;2.83;0.47;;;26.20;55.30;;;;;;5060947;28;20495;-51
2021/09/20 12:03:59;;;;;;;2.80;0.70;;;26.20;55.20;;;;;;5062290;28;20596;-48
2021/09/20 12:06:32;;;;;;;1.67;0.65;;;26.20;55.20;;;;;;5065541;28;20055;-47
2021/09/20 12:09:02;;;;;;;6.70;1.67;;;26.20;55.20;;;;;;5064908;28;20127;-50
2021/09/20 12:11:30;;;;;;;8.55;0.60;;;26.20;55.20;;;;;;5060131;28;20066;-50
2021/09/20 12:13:57;;;;;;;4.70;1.17;;;26.20;55.10;;;;;;5060134;28;20099;-49
2021/09/20 12:16:27;;;;;;;1.88;1.15;;;26.20;55.10;;;;;;5059762;28;20041;-47
2021/09/20 12:18:55;;;;;;;2.72;0.65;;;26.20;55.10;;;;;;5061745;28;20037;-49
2021/09/20 12:21:22;;;;;;;2.78;0.50;;;26.20;55.10;;;;;;5064766;28;20068;-49
2021/09/20 12:23:51;;;;;;;1.95;1.17;;;26.20;55.10;;;;;;5063559;28;20036;-51
2021/09/20 12:26:20;;;;;;;2.80;1.48;;;26.20;55.00;;;;;;5059415;28;20446;-50
2021/09/20 12:28:53;;;;;;;2.45;1.33;;;26.20;55.00;;;;;;5059182;28;20571;-51
2021/09/20 12:31:22;;;;;;;4.18;1.45;;;26.20;55.00;;;;;;5059908;28;20045;-48
2021/09/20 12:33:53;;;;;;;2.90;0.88;;;26.20;55.00;;;;;;5062489;28;20390;-49
2021/09/20 12:36:23;;;;;;;4.18;1.27;;;26.20;55.00;;;;;;5064871;28;20040;-50
2021/09/20 12:39:07;;;;;;;3.75;1.67;;;26.20;55.00;;;;;;5063294;28;20123;-48
2021/09/20 12:41:37;;;;;;;2.17;1.15;;;26.30;55.00;;;;;;5053330;28;20060;-47
2021/09/20 12:44:05;;;;;;;7.03;1.95;;;26.20;54.90;;;;;;5055778;28;20045;-53
2021/09/20 12:46:34;;;;;;;2.30;1.50;;;26.20;54.90;;;;;;5059396;28;20028;-47
2021/09/20 12:49:01;;;;;;;4.20;0.90;;;26.30;55.00;;;;;;5052645;28;20069;-48
2021/09/20 12:51:35;;;;;;;3.75;1.65;;;26.30;54.90;;;;;;5064097;28;20041;-48
2021/09/20 12:54:21;;;;;;;5.25;1.70;;;26.30;55.40;;;;;;5065036;28;20059;-51